X  Fermer Données météorologiques d'aviation de Metar     EDDS Stuttgart Airport
Température
14°C Température
12°C Point de rosée
88% Humidité



Vitesse
3 KM/H
2 MPH
1 M/S
2 KTS



Calme
Nord
Conditions actuelles

Partiellement nuageux Partiellement nuageux
Pression 1016.92 (hPa) - 30.03 (inHg)
Visibilité 6.2 (mile) - 10 (km)
Aéroport
Code de l'aéroport EDDS

Emplacement: Stuttgart Airport
Distance: 10 (km)

Metar:
EDDS 222150Z VRB02KT 9999 FEW043 14/12 Q1017

Temps: 22-10-2020 23:50 CEST